Time;durP1;ratioP1;P1;durP2;ratioP2;P2;SDS_P1;SDS_P2;PMS_P1;PMS_P2;Temp;Humidity;BMP_temperature;BMP_pressure;BME280_temperature;BME280_humidity;BME280_pressure;Samples;Min_cycle;Max_cycle;Signal;HPM_P1;HPM_P2
2024/04/11 00:00:42;;;;;;;0.30;0.30;;;11.60;72.60;13.00;101685.00;;;;5464579;26;20352;-75
2024/04/11 00:03:11;;;;;;;0.30;0.30;;;11.60;72.50;13.00;101683.00;;;;5461287;26;20764;-76
2024/04/11 00:05:40;;;;;;;0.30;0.30;;;11.60;72.60;13.00;101691.00;;;;5466242;26;20295;-76
2024/04/11 00:08:09;;;;;;;0.30;0.30;;;11.60;72.60;13.00;101674.00;;;;5467173;26;20720;-76
2024/04/11 00:10:35;;;;;;;0.30;0.30;;;11.60;72.80;13.00;101693.00;;;;5459830;26;20285;-76
2024/04/11 00:13:03;;;;;;;0.30;0.30;;;11.60;72.90;13.00;101681.00;;;;5473473;26;20235;-76
2024/04/11 00:15:32;;;;;;;0.30;0.30;;;11.60;73.00;13.00;101690.00;;;;5469001;26;20617;-76
2024/04/11 00:18:01;;;;;;;0.30;0.30;;;11.60;73.20;13.00;101694.00;;;;5468464;26;20280;-73
2024/04/11 00:20:27;;;;;;;0.30;0.30;;;11.60;72.90;13.00;101699.00;;;;5463114;26;20231;-78
2024/04/11 00:22:56;;;;;;;0.30;0.30;;;11.60;73.00;13.00;101700.00;;;;5463248;26;20791;-77
2024/04/11 00:25:22;;;;;;;0.30;0.30;;;11.60;72.90;13.00;101683.00;;;;5459652;26;20280;-73
2024/04/11 00:27:51;;;;;;;0.32;0.32;;;11.60;72.90;13.00;101678.00;;;;5465052;26;20641;-77
2024/04/11 00:30:17;;;;;;;0.30;0.30;;;11.60;73.00;13.00;101674.00;;;;5458477;26;20327;-78
2024/04/11 00:32:49;;;;;;;0.30;0.30;;;11.60;73.00;13.00;101677.00;;;;5464526;26;20224;-78
2024/04/11 00:35:17;;;;;;;0.30;0.30;;;11.60;73.20;13.00;101682.00;;;;5460256;26;20232;-75
2024/04/11 00:37:48;;;;;;;0.30;0.30;;;11.60;73.00;13.00;101686.00;;;;5466869;26;20244;-78
2024/04/11 00:40:15;;;;;;;0.30;0.30;;;11.50;73.10;13.00;101685.00;;;;5459315;26;20739;-76
2024/04/11 00:42:43;;;;;;;0.30;0.30;;;11.60;73.20;13.00;101684.00;;;;5466194;26;20228;-76
2024/04/11 00:45:10;;;;;;;0.30;0.30;;;11.60;73.20;13.00;101688.00;;;;5462745;26;20275;-77
2024/04/11 00:47:40;;;;;;;0.40;0.40;;;11.60;73.20;13.00;101682.00;;;;5465650;26;20231;-75
2024/04/11 00:50:09;;;;;;;0.30;0.30;;;11.50;73.20;13.00;101689.00;;;;5469774;26;20242;-75
2024/04/11 00:52:43;;;;;;;0.30;0.30;;;11.50;73.50;12.90;101696.00;;;;5457634;26;20278;-75
2024/04/11 00:55:12;;;;;;;0.30;0.30;;;11.50;73.40;13.00;101703.00;;;;5460077;26;20235;-76
2024/04/11 00:57:41;;;;;;;0.30;0.30;;;11.50;73.30;12.90;101696.00;;;;5459774;26;20275;-76
2024/04/11 01:00:10;;;;;;;0.30;0.30;;;11.50;74.00;12.90;101693.00;;;;5459693;26;20232;-76
2024/04/11 01:02:42;;;;;;;0.40;0.40;;;11.50;73.30;12.90;101692.00;;;;5457443;26;20304;-78
2024/04/11 01:05:10;;;;;;;0.30;0.30;;;11.50;73.30;12.90;101691.00;;;;5456035;26;20235;-79
2024/04/11 01:07:39;;;;;;;0.30;0.30;;;11.50;73.50;12.90;101690.00;;;;5462392;26;20572;-76
2024/04/11 01:10:16;;;;;;;0.30;0.30;;;11.50;73.30;12.90;101689.00;;;;5469327;26;20243;-77
2024/04/11 01:12:45;;;;;;;0.30;0.30;;;11.50;73.40;12.90;101694.00;;;;5465547;26;20239;-74
2024/04/11 01:15:11;;;;;;;0.30;0.30;;;11.50;73.40;12.90;101670.00;;;;5462467;26;20362;-78
2024/04/11 01:17:40;;;;;;;0.30;0.30;;;11.50;73.40;12.90;101683.00;;;;5472584;26;20782;-78
2024/04/11 01:20:07;;;;;;;0.30;0.30;;;11.50;73.40;12.90;101683.00;;;;5468459;26;20228;-77
2024/04/11 01:22:42;;;;;;;0.30;0.30;;;11.50;73.40;12.90;101676.00;;;;5464585;26;20325;-76
2024/04/11 01:25:08;;;;;;;0.30;0.30;;;11.50;73.70;13.00;101680.00;;;;5465155;26;20246;-77
2024/04/11 01:27:38;;;;;;;0.30;0.30;;;11.50;73.40;12.90;101666.00;;;;5465804;26;21106;-76
2024/04/11 01:30:05;;;;;;;0.30;0.30;;;11.50;73.40;12.90;101669.00;;;;5464770;26;20661;-77
2024/04/11 01:32:35;;;;;;;0.30;0.30;;;11.50;73.40;13.00;101666.00;;;;5466221;26;20231;-76
2024/04/11 01:35:01;;;;;;;0.30;0.30;;;11.50;73.30;13.00;101660.00;;;;5462119;26;20316;-76
2024/04/11 01:37:29;;;;;;;0.35;0.35;;;11.50;73.30;12.70;101667.00;;;;5463322;26;20244;-75
2024/04/11 01:39:58;;;;;;;0.30;0.30;;;11.50;73.30;13.00;101663.00;;;;5460483;26;20243;-77
2024/04/11 01:42:27;;;;;;;0.30;0.30;;;11.50;73.60;13.00;101664.00;;;;5463746;26;20670;-76
2024/04/11 01:44:55;;;;;;;0.30;0.30;;;11.50;73.50;12.90;101672.00;;;;5459900;26;20284;-75
2024/04/11 01:47:23;;;;;;;0.30;0.30;;;11.50;73.70;12.90;101673.00;;;;5467358;26;20267;-77
2024/04/11 01:49:49;;;;;;;0.30;0.30;;;11.50;73.70;12.90;101658.00;;;;5459523;26;20283;-77
2024/04/11 01:52:18;;;;;;;0.30;0.30;;;11.40;73.50;12.90;101674.00;;;;5467844;26;20243;-76
2024/04/11 01:54:44;;;;;;;0.30;0.30;;;11.40;73.50;12.90;101671.00;;;;5461400;26;20712;-76
2024/04/11 01:57:15;;;;;;;0.30;0.30;;;11.40;73.60;12.90;101672.00;;;;5467056;26;20331;-77
2024/04/11 01:59:42;;;;;;;0.30;0.30;;;11.40;73.90;12.90;101665.00;;;;5458202;26;20576;-76
2024/04/11 02:02:10;;;;;;;0.40;0.40;;;11.40;73.70;12.90;101670.00;;;;5467901;26;20239;-76
2024/04/11 02:04:40;;;;;;;0.30;0.30;;;11.40;73.70;12.90;101677.00;;;;5457151;26;20387;-77
2024/04/11 02:07:08;;;;;;;0.40;0.40;;;11.40;73.80;13.00;101671.00;;;;5464760;26;20244;-76
2024/04/11 02:09:35;;;;;;;0.35;0.35;;;11.40;73.80;12.90;101661.00;;;;5459035;26;20228;-77
2024/04/11 02:12:03;;;;;;;0.30;0.30;;;11.30;73.80;12.90;101677.00;;;;5460480;26;20608;-77
2024/04/11 02:14:32;;;;;;;0.30;0.30;;;11.30;73.80;12.90;101680.00;;;;5460907;26;20240;-76
2024/04/11 02:17:01;;;;;;;0.30;0.30;;;11.30;73.90;12.90;101680.00;;;;5456346;26;20691;-73
2024/04/11 02:19:28;;;;;;;0.40;0.40;;;11.30;73.60;12.90;101678.00;;;;5458528;26;20244;-77
2024/04/11 02:21:57;;;;;;;0.30;0.30;;;11.30;73.50;12.80;101672.00;;;;5453690;26;20300;-76
2024/04/11 02:24:23;;;;;;;0.30;0.30;;;11.30;73.40;12.80;101683.00;;;;5462443;26;20235;-76
2024/04/11 02:26:52;;;;;;;0.30;0.30;;;11.30;73.50;12.80;101688.00;;;;5462102;26;20235;-78
2024/04/11 02:29:20;;;;;;;0.32;0.32;;;11.30;73.50;12.80;101679.00;;;;5462453;26;20328;-77
2024/04/11 02:31:52;;;;;;;0.30;0.30;;;11.30;73.50;12.80;101679.00;;;;5463428;26;20277;-78
2024/04/11 02:34:18;;;;;;;0.35;0.35;;;11.30;73.50;12.90;101675.00;;;;5460718;26;20656;-77
2024/04/11 02:36:47;;;;;;;0.40;0.40;;;11.30;73.50;12.90;101678.00;;;;5459725;26;20252;-76
2024/04/11 02:39:16;;;;;;;0.40;0.40;;;11.30;73.50;12.90;101688.00;;;;5460578;26;20270;-74
2024/04/11 02:41:45;;;;;;;0.40;0.40;;;11.40;73.70;12.90;101685.00;;;;5463530;26;20700;-78
2024/04/11 02:44:10;;;;;;;0.40;0.40;;;11.40;73.70;13.00;101684.00;;;;5464518;26;20231;-78
2024/04/11 02:46:39;;;;;;;0.30;0.30;;;11.50;73.70;13.00;101682.00;;;;5468196;26;20344;-77
2024/04/11 02:49:09;;;;;;;0.30;0.30;;;11.50;73.80;13.00;101674.00;;;;5468748;26;20266;-77
2024/04/11 02:51:38;;;;;;;0.28;0.28;;;11.50;73.90;13.10;101681.00;;;;5466501;26;20244;-77
2024/04/11 02:54:04;;;;;;;0.30;0.30;;;11.60;73.80;13.10;101672.00;;;;5465775;26;20283;-76
2024/04/11 02:56:34;;;;;;;0.30;0.30;;;11.60;73.70;13.20;101671.00;;;;5465137;26;20275;-77
2024/04/11 02:59:00;;;;;;;0.30;0.30;;;11.60;73.70;13.20;101656.00;;;;5464538;26;20274;-75
2024/04/11 03:01:31;;;;;;;0.30;0.30;;;11.70;73.80;13.20;101677.00;;;;5466935;26;20232;-75
2024/04/11 03:04:01;;;;;;;0.30;0.30;;;11.70;73.70;13.30;101677.00;;;;5464151;26;20601;-77
2024/04/11 03:06:35;;;;;;;0.30;0.30;;;11.70;73.60;13.30;101664.00;;;;5464858;26;20248;-78
2024/04/11 03:09:03;;;;;;;0.30;0.30;;;11.80;73.70;13.30;101663.00;;;;5459962;26;22365;-73
2024/04/11 03:11:32;;;;;;;0.40;0.40;;;11.80;73.50;13.40;101668.00;;;;5462934;26;20232;-78
2024/04/11 03:13:58;;;;;;;0.30;0.30;;;11.80;73.50;13.40;101668.00;;;;5465728;26;20308;-76
2024/04/11 03:16:30;;;;;;;0.30;0.30;;;11.90;73.50;13.40;101663.00;;;;5467556;26;20279;-75
2024/04/11 03:18:57;;;;;;;0.30;0.30;;;11.90;73.50;13.40;101659.00;;;;5471537;26;20752;-76
2024/04/11 03:21:26;;;;;;;0.32;0.32;;;11.90;73.50;13.40;101662.00;;;;5470825;26;20269;-76
2024/04/11 03:23:55;;;;;;;0.30;0.30;;;11.90;73.40;13.40;101667.00;;;;5466926;26;20301;-76
2024/04/11 03:26:23;;;;;;;0.30;0.30;;;11.90;73.30;13.40;101669.00;;;;5466733;26;20266;-78
2024/04/11 03:28:49;;;;;;;0.38;0.38;;;11.90;73.10;13.40;101675.00;;;;5464997;26;20231;-77
2024/04/11 03:31:20;;;;;;;0.38;0.38;;;11.90;73.20;13.40;101674.00;;;;5460426;26;20800;-77
2024/04/11 03:33:47;;;;;;;0.30;0.30;;;11.90;73.10;13.40;101679.00;;;;5466612;26;20263;-77
2024/04/11 03:36:16;;;;;;;0.32;0.32;;;11.90;73.00;13.40;101684.00;;;;5465921;26;20233;-75
2024/04/11 03:38:42;;;;;;;0.30;0.30;;;12.00;73.10;13.40;101683.00;;;;5463869;26;20244;-75
2024/04/11 03:41:14;;;;;;;0.35;0.35;;;12.00;73.20;13.40;101682.00;;;;5468579;26;20231;-76
2024/04/11 03:43:44;;;;;;;0.30;0.30;;;12.00;73.30;13.40;101675.00;;;;5461975;26;20244;-76
2024/04/11 03:46:18;;;;;;;0.40;0.40;;;12.00;73.20;13.50;101689.00;;;;5470837;26;20285;-77
2024/04/11 03:48:49;;;;;;;0.30;0.30;;;12.00;73.20;13.50;101697.00;;;;5465111;26;20277;-77
2024/04/11 03:51:18;;;;;;;0.30;0.30;;;12.00;73.20;13.50;101690.00;;;;5469360;26;20233;-78
2024/04/11 03:53:49;;;;;;;0.30;0.30;;;12.00;73.20;13.50;101685.00;;;;5469206;26;20227;-75
2024/04/11 03:56:21;;;;;;;0.30;0.30;;;12.00;73.20;13.50;101680.00;;;;5471009;26;20248;-77
2024/04/11 03:58:51;;;;;;;0.30;0.30;;;12.00;73.40;13.50;101683.00;;;;5465699;26;20279;-78
2024/04/11 04:01:18;;;;;;;0.30;0.30;;;12.00;73.40;13.50;101688.00;;;;5463819;26;20231;-77
2024/04/11 04:03:48;;;;;;;0.30;0.30;;;12.00;73.50;13.50;101685.00;;;;5468651;26;20271;-75
2024/04/11 04:06:15;;;;;;;0.30;0.30;;;12.00;73.40;13.50;101685.00;;;;5461888;26;20738;-76
2024/04/11 04:08:45;;;;;;;0.30;0.30;;;12.00;73.30;13.50;101693.00;;;;5468004;26;20275;-75
2024/04/11 04:11:12;;;;;;;0.30;0.30;;;12.00;73.40;13.50;101689.00;;;;5466806;26;20786;-78
2024/04/11 04:13:44;;;;;;;0.30;0.30;;;12.00;73.50;13.50;101679.00;;;;5460368;26;20240;-76
2024/04/11 04:16:12;;;;;;;0.35;0.35;;;12.00;73.50;13.50;101683.00;;;;5465783;26;20291;-78
2024/04/11 04:18:41;;;;;;;0.25;0.25;;;12.10;73.50;13.50;101668.00;;;;5461798;26;20232;-76
2024/04/11 04:21:08;;;;;;;0.30;0.30;;;12.10;73.70;13.50;101673.00;;;;5469099;26;20709;-78
2024/04/11 04:23:38;;;;;;;0.40;0.40;;;12.10;74.40;13.60;101665.00;;;;5467104;26;20231;-77
2024/04/11 04:26:06;;;;;;;0.30;0.30;;;12.10;73.60;13.60;101656.00;;;;5469234;26;20557;-76
2024/04/11 04:28:37;;;;;;;0.30;0.30;;;12.10;73.70;13.60;101659.00;;;;5463536;26;20228;-76
2024/04/11 04:31:17;;;;;;;0.30;0.30;;;12.10;73.80;13.60;101659.00;;;;5458206;26;20270;-77
2024/04/11 04:33:47;;;;;;;0.30;0.30;;;12.10;74.10;13.60;101666.00;;;;5460012;26;20234;-74
2024/04/11 04:36:16;;;;;;;0.30;0.30;;;12.10;73.70;13.60;101664.00;;;;5462856;26;20231;-76
2024/04/11 04:38:46;;;;;;;0.30;0.30;;;12.10;73.70;13.60;101670.00;;;;5456778;26;20274;-76
2024/04/11 04:41:12;;;;;;;0.38;0.38;;;12.10;73.80;13.70;101667.00;;;;5466876;26;20239;-76
2024/04/11 04:43:47;;;;;;;0.30;0.30;;;12.10;73.90;13.70;101662.00;;;;5460432;26;20244;-73
2024/04/11 04:46:16;;;;;;;0.30;0.30;;;12.20;74.00;13.70;101665.00;;;;5462857;26;20660;-77
2024/04/11 04:48:45;;;;;;;0.30;0.30;;;12.20;74.20;13.70;101655.00;;;;5456897;26;20243;-75
2024/04/11 04:51:12;;;;;;;0.35;0.35;;;12.20;74.20;13.80;101662.00;;;;5459616;26;20775;-79
2024/04/11 04:53:41;;;;;;;0.30;0.30;;;12.30;74.30;13.80;101642.00;;;;5464479;26;20334;-77
2024/04/11 04:56:09;;;;;;;0.30;0.30;;;12.30;75.00;13.80;101658.00;;;;5462350;26;20295;-79
2024/04/11 04:58:38;;;;;;;0.40;0.40;;;12.30;74.30;13.80;101660.00;;;;5467377;26;20714;-77
2024/04/11 05:01:04;;;;;;;0.30;0.30;;;12.30;74.30;13.90;101654.00;;;;5467569;26;20735;-78
2024/04/11 05:03:38;;;;;;;0.30;0.30;;;12.40;74.60;13.90;101652.00;;;;5467990;26;20278;-76
2024/04/11 05:06:07;;;;;;;0.30;0.30;;;12.40;75.50;14.00;101651.00;;;;5468993;26;20279;-77
2024/04/11 05:08:36;;;;;;;0.30;0.30;;;12.40;74.70;14.00;101654.00;;;;5465624;26;20230;-76
2024/04/11 05:11:10;;;;;;;0.30;0.30;;;12.50;74.80;14.10;101662.00;;;;5465710;26;20986;-77
2024/04/11 05:13:40;;;;;;;0.30;0.30;;;12.50;74.70;14.10;101664.00;;;;5464825;26;20273;-77
2024/04/11 05:16:07;;;;;;;0.30;0.30;;;12.60;74.80;14.10;101658.00;;;;5466606;26;20267;-79
2024/04/11 05:18:39;;;;;;;0.30;0.30;;;12.60;74.70;14.10;101668.00;;;;5465097;26;20317;-77
2024/04/11 05:21:07;;;;;;;0.30;0.30;;;12.60;74.90;14.20;101660.00;;;;5466177;26;20239;-79
2024/04/11 05:23:38;;;;;;;0.30;0.30;;;12.70;74.80;14.20;101672.00;;;;5463833;26;20236;-77
2024/04/11 05:26:07;;;;;;;0.30;0.30;;;12.70;74.70;14.20;101652.00;;;;5463359;26;20330;-80
2024/04/11 05:28:40;;;;;;;0.30;0.30;;;12.70;74.70;14.30;101675.00;;;;5465787;26;20236;-80
2024/04/11 05:31:07;;;;;;;0.30;0.30;;;12.70;74.70;14.30;101672.00;;;;5462139;26;20294;-78
2024/04/11 05:33:40;;;;;;;0.30;0.30;;;12.80;74.80;14.30;101682.00;;;;5462443;26;20270;-78
2024/04/11 05:36:12;;;;;;;0.32;0.32;;;12.80;74.90;14.30;101674.00;;;;5460131;26;20677;-76
2024/04/11 05:38:41;;;;;;;0.30;0.30;;;12.80;74.80;14.30;101679.00;;;;5461981;26;20236;-77
2024/04/11 05:41:09;;;;;;;0.30;0.30;;;12.90;74.90;14.40;101690.00;;;;5457130;26;20240;-79
2024/04/11 05:43:38;;;;;;;0.32;0.32;;;12.90;74.90;14.40;101677.00;;;;5461855;26;20235;-77
2024/04/11 05:46:05;;;;;;;0.38;0.38;;;12.90;75.00;14.40;101672.00;;;;5462345;26;20755;-78
2024/04/11 05:48:35;;;;;;;0.30;0.30;;;12.90;75.00;14.50;101671.00;;;;5460502;26;20228;-77
2024/04/11 05:51:05;;;;;;;0.40;0.40;;;12.90;75.80;14.50;101670.00;;;;5463866;26;20585;-78
2024/04/11 05:53:36;;;;;;;0.30;0.30;;;13.00;75.50;14.50;101668.00;;;;5465895;26;20384;-80
2024/04/11 05:56:03;;;;;;;0.30;0.30;;;13.00;75.30;14.60;101674.00;;;;5462974;26;20271;-76
2024/04/11 05:58:32;;;;;;;0.30;0.30;;;13.00;75.30;14.60;101662.00;;;;5465587;26;20231;-80
2024/04/11 06:01:01;;;;;;;0.40;0.40;;;13.10;75.40;14.60;101673.00;;;;5459076;26;20328;-80
2024/04/11 06:03:30;;;;;;;0.40;0.40;;;13.10;75.40;14.70;101678.00;;;;5459589;26;20228;-77
2024/04/11 06:05:57;;;;;;;0.30;0.30;;;13.10;75.30;14.70;101678.00;;;;5468666;26;20269;-77
2024/04/11 06:08:28;;;;;;;0.30;0.30;;;13.20;75.40;14.70;101682.00;;;;5465272;26;20227;-79
2024/04/11 06:10:56;;;;;;;0.30;0.30;;;13.20;75.40;14.80;101674.00;;;;5463366;26;20365;-79
2024/04/11 06:13:25;;;;;;;0.30;0.30;;;13.20;75.50;14.80;101663.00;;;;5462392;26;20232;-78
2024/04/11 06:15:51;;;;;;;0.40;0.40;;;13.30;75.60;14.90;101690.00;;;;5462286;26;20266;-77
2024/04/11 06:18:19;;;;;;;0.30;0.30;;;13.30;75.60;14.90;101680.00;;;;5458458;26;20232;-75
2024/04/11 06:20:46;;;;;;;0.30;0.30;;;13.40;75.80;15.00;101686.00;;;;5463284;26;20295;-78
2024/04/11 06:23:15;;;;;;;0.30;0.30;;;13.40;75.70;15.00;101688.00;;;;5469541;26;20227;-79
2024/04/11 06:25:45;;;;;;;0.30;0.30;;;13.50;75.70;14.90;101693.00;;;;5465522;26;20284;-77
2024/04/11 06:28:14;;;;;;;0.30;0.30;;;13.50;76.10;15.10;101693.00;;;;5463426;26;20231;-76
2024/04/11 06:30:41;;;;;;;0.30;0.30;;;13.60;76.00;15.20;101698.00;;;;5467345;26;20323;-76
2024/04/11 06:33:11;;;;;;;0.30;0.30;;;13.60;76.10;15.20;101706.00;;;;5464908;26;20228;-72
2024/04/11 06:35:38;;;;;;;0.30;0.30;;;13.60;76.10;15.30;101706.00;;;;5460329;26;20661;-78
2024/04/11 06:38:09;;;;;;;0.30;0.30;;;13.70;76.10;15.30;101708.00;;;;5464008;26;20265;-78
2024/04/11 06:40:35;;;;;;;0.30;0.30;;;13.70;76.10;15.30;101708.00;;;;5459069;26;20240;-78
2024/04/11 06:43:08;;;;;;;0.30;0.30;;;13.80;76.20;15.40;101719.00;;;;5456104;26;20232;-78
2024/04/11 06:45:34;;;;;;;0.30;0.30;;;13.80;76.40;15.40;101715.00;;;;5458833;26;20235;-77
2024/04/11 06:48:03;;;;;;;0.30;0.30;;;13.80;76.20;15.50;101721.00;;;;5458110;26;20715;-78
2024/04/11 06:50:29;;;;;;;0.30;0.30;;;13.80;76.20;15.50;101718.00;;;;5460072;26;20818;-77
2024/04/11 06:52:59;;;;;;;0.40;0.40;;;13.90;76.20;15.60;101722.00;;;;5457179;26;20231;-78
2024/04/11 06:55:25;;;;;;;0.30;0.30;;;13.90;76.00;15.60;101722.00;;;;5459551;26;20278;-78
2024/04/11 06:57:56;;;;;;;0.40;0.40;;;14.00;76.30;15.60;101732.00;;;;5458368;26;20235;-76
2024/04/11 07:00:28;;;;;;;0.30;0.30;;;14.00;76.30;15.70;101735.00;;;;5461073;26;20288;-80
2024/04/11 07:02:57;;;;;;;0.30;0.30;;;14.00;76.40;15.70;101726.00;;;;5457511;26;20239;-76
2024/04/11 07:05:23;;;;;;;0.30;0.30;;;14.10;76.20;15.70;101725.00;;;;5459457;26;20679;-76
2024/04/11 07:07:54;;;;;;;0.40;0.40;;;14.10;76.00;15.70;101728.00;;;;5465327;26;20262;-77
2024/04/11 07:10:24;;;;;;;0.40;0.40;;;14.10;76.20;15.80;101737.00;;;;5459092;26;20232;-78
2024/04/11 07:12:53;;;;;;;0.30;0.30;;;14.20;76.40;15.80;101735.00;;;;5465172;26;20329;-78
2024/04/11 07:15:19;;;;;;;0.30;0.30;;;14.20;76.40;15.80;101756.00;;;;5461662;26;20274;-77
2024/04/11 07:17:56;;;;;;;0.35;0.35;;;14.20;76.20;15.80;101759.00;;;;5460294;26;20558;-76
2024/04/11 07:20:25;;;;;;;0.30;0.30;;;14.30;76.20;15.90;101771.00;;;;5458841;26;20275;-80
2024/04/11 07:22:55;;;;;;;0.32;0.32;;;14.30;76.50;15.90;101765.00;;;;5458821;26;20236;-78
2024/04/11 07:25:22;;;;;;;0.30;0.30;;;14.30;76.60;16.00;101775.00;;;;5463755;26;20456;-78
2024/04/11 07:27:51;;;;;;;0.30;0.30;;;14.40;76.70;16.00;101776.00;;;;5461176;26;20337;-77
2024/04/11 07:30:20;;;;;;;0.40;0.40;;;14.40;76.80;16.10;101786.00;;;;5463402;26;20266;-79
2024/04/11 07:32:54;;;;;;;0.30;0.30;;;14.50;77.00;16.10;101781.00;;;;5462896;26;20333;-78
2024/04/11 07:35:20;;;;;;;0.30;0.30;;;14.50;76.80;16.10;101758.00;;;;5461062;26;20277;-75
2024/04/11 07:37:48;;;;;;;0.30;0.30;;;14.60;76.80;16.20;101761.00;;;;5465750;26;20233;-78
2024/04/11 07:40:27;;;;;;;0.30;0.30;;;14.60;76.90;16.30;101774.00;;;;5460683;26;20278;-76
2024/04/11 07:43:05;;;;;;;0.30;0.30;;;14.60;77.00;16.40;101784.00;;;;5468725;26;20330;-78
2024/04/11 07:45:35;;;;;;;0.30;0.30;;;14.70;77.90;16.40;101783.00;;;;5459942;26;20657;-80
2024/04/11 07:48:08;;;;;;;0.30;0.30;;;14.80;76.90;16.40;101782.00;;;;5463410;26;20601;-76
2024/04/11 07:50:35;;;;;;;0.30;0.30;;;14.80;76.80;16.50;101789.00;;;;5466690;26;20354;-78
2024/04/11 07:53:06;;;;;;;0.30;0.30;;;14.90;77.20;16.50;101780.00;;;;5457159;26;20232;-77
2024/04/11 07:55:33;;;;;;;0.30;0.30;;;14.90;77.20;16.50;101784.00;;;;5460192;26;20231;-77
2024/04/11 07:58:05;;;;;;;0.30;0.30;;;14.90;77.00;16.60;101775.00;;;;5458043;26;20340;-77
2024/04/11 08:00:38;;;;;;;0.30;0.30;;;14.90;77.10;16.60;101753.00;;;;5462981;26;20295;-77
2024/04/11 08:03:13;;;;;;;0.30;0.30;;;15.00;77.30;16.70;101769.00;;;;5460217;26;20652;-79
2024/04/11 08:05:40;;;;;;;0.30;0.30;;;15.00;77.20;16.70;101779.00;;;;5458353;26;20231;-77
2024/04/11 08:08:08;;;;;;;0.30;0.30;;;15.10;77.10;16.70;101779.00;;;;5462295;26;20765;-77
2024/04/11 08:10:35;;;;;;;0.30;0.30;;;15.10;77.10;16.80;101775.00;;;;5457077;26;20833;-79
2024/04/11 08:13:03;;;;;;;0.30;0.30;;;15.10;77.10;16.80;101788.00;;;;5463167;26;20229;-78
2024/04/11 08:15:30;;;;;;;0.30;0.30;;;15.10;77.40;16.80;101786.00;;;;5459654;26;20292;-79
2024/04/11 08:17:59;;;;;;;0.30;0.30;;;15.20;77.30;16.90;101777.00;;;;5458794;26;20232;-77
2024/04/11 08:20:29;;;;;;;0.30;0.30;;;15.20;77.30;16.90;101785.00;;;;5464831;26;20228;-78
2024/04/11 08:22:58;;;;;;;0.30;0.30;;;15.20;77.40;16.90;101794.00;;;;5465087;26;20376;-75
2024/04/11 08:25:24;;;;;;;0.30;0.30;;;15.30;77.40;17.00;101782.00;;;;5463119;26;20617;-79
2024/04/11 08:27:54;;;;;;;0.30;0.30;;;15.30;77.40;17.00;101797.00;;;;5465348;26;20558;-79
2024/04/11 08:30:20;;;;;;;0.30;0.30;;;15.40;77.70;17.10;101798.00;;;;5464003;26;20278;-76
2024/04/11 08:32:49;;;;;;;0.30;0.30;;;15.40;78.00;17.20;101806.00;;;;5464113;26;20282;-77
2024/04/11 08:35:17;;;;;;;0.30;0.30;;;15.50;78.10;17.20;101808.00;;;;5456226;26;20346;-79
2024/04/11 08:37:51;;;;;;;0.30;0.30;;;15.50;78.00;17.30;101804.00;;;;5459911;26;20232;-79
2024/04/11 08:40:18;;;;;;;0.30;0.30;;;15.60;78.20;17.30;101813.00;;;;5462445;26;20231;-78
2024/04/11 08:42:47;;;;;;;0.30;0.30;;;15.70;78.20;17.20;101805.00;;;;5457760;26;20276;-78
2024/04/11 08:45:14;;;;;;;0.30;0.30;;;15.70;78.30;17.50;101808.00;;;;5460254;26;20231;-77
2024/04/11 08:47:45;;;;;;;0.30;0.30;;;15.80;78.20;17.50;101824.00;;;;5465350;26;20235;-77
2024/04/11 08:50:12;;;;;;;0.30;0.30;;;15.90;78.70;17.60;101797.00;;;;5463123;26;20227;-79
2024/04/11 08:52:49;;;;;;;0.30;0.30;;;15.90;79.00;17.70;101821.00;;;;5472371;26;20228;-79
2024/04/11 08:55:17;;;;;;;0.30;0.30;;;16.00;79.00;17.80;101820.00;;;;5463219;26;20244;-79
2024/04/11 08:57:46;;;;;;;0.30;0.30;;;16.10;79.10;17.90;101819.00;;;;5455618;26;20274;-76
2024/04/11 09:00:21;;;;;;;0.30;0.30;;;16.20;79.50;18.00;101835.00;;;;5467215;26;20770;-78
2024/04/11 09:02:51;;;;;;;0.40;0.40;;;16.30;79.70;18.10;101825.00;;;;5461443;26;20294;-78
2024/04/11 09:05:17;;;;;;;0.40;0.40;;;16.30;79.40;18.20;101831.00;;;;5464072;26;20267;-78
2024/04/11 09:07:47;;;;;;;0.32;0.32;;;16.40;79.20;18.20;101842.00;;;;5462383;26;20240;-78
2024/04/11 09:10:19;;;;;;;0.30;0.30;;;16.50;79.00;18.20;101832.00;;;;5463817;26;20290;-77
2024/04/11 09:12:48;;;;;;;0.30;0.30;;;16.50;79.30;18.30;101840.00;;;;5462303;26;20246;-77
2024/04/11 09:15:15;;;;;;;0.30;0.30;;;16.60;79.30;18.30;101835.00;;;;5461834;26;20278;-77
2024/04/11 09:17:46;;;;;;;0.30;0.30;;;16.70;79.10;18.30;101847.00;;;;5464605;26;20232;-76
2024/04/11 09:20:13;;;;;;;0.30;0.30;;;16.70;78.90;18.40;101847.00;;;;5460561;26;20231;-75
2024/04/11 09:22:50;;;;;;;0.30;0.30;;;16.70;78.90;18.40;101855.00;;;;5465186;26;20622;-79
2024/04/11 09:25:22;;;;;;;0.20;0.20;;;16.70;79.40;18.50;101851.00;;;;5454852;26;20279;-76
2024/04/11 09:27:58;;;;;;;0.20;0.20;;;16.80;79.30;18.50;101849.00;;;;5456175;26;20269;-77
2024/04/11 09:30:29;;;;;;;0.30;0.30;;;16.80;79.10;18.50;101857.00;;;;5460629;26;20236;-79
2024/04/11 09:33:04;;;;;;;0.20;0.20;;;16.80;79.10;18.50;101850.00;;;;5462999;26;20236;-75
2024/04/11 09:35:40;;;;;;;0.30;0.30;;;16.90;79.00;18.50;101853.00;;;;5461654;26;20230;-76
2024/04/11 09:38:13;;;;;;;0.30;0.30;;;16.90;79.30;18.60;101859.00;;;;5463080;26;20559;-76
2024/04/11 09:40:50;;;;;;;0.30;0.30;;;17.00;79.30;18.60;101865.00;;;;5460508;26;20273;-76
2024/04/11 09:43:20;;;;;;;0.30;0.30;;;17.00;79.60;18.70;101862.00;;;;5464912;26;20270;-78
2024/04/11 09:45:50;;;;;;;0.30;0.30;;;17.00;79.60;18.70;101862.00;;;;5465980;26;20325;-79
2024/04/11 09:48:21;;;;;;;0.30;0.30;;;17.10;80.10;18.80;101870.00;;;;5463841;26;20232;-79
2024/04/11 09:50:50;;;;;;;0.30;0.30;;;17.10;80.20;18.90;101874.00;;;;5467508;26;20231;-77
2024/04/11 09:53:28;;;;;;;0.30;0.30;;;17.20;80.40;19.00;101872.00;;;;5467868;26;20793;-76
2024/04/11 09:55:59;;;;;;;0.30;0.30;;;17.20;80.20;19.00;101861.00;;;;5463385;26;20273;-78
2024/04/11 09:58:32;;;;;;;0.30;0.30;;;17.30;80.60;19.10;101839.00;;;;5470312;26;20240;-77
2024/04/11 10:01:05;;;;;;;0.30;0.30;;;17.40;80.50;19.20;101858.00;;;;5463773;26;20310;-76
2024/04/11 10:03:34;;;;;;;0.30;0.30;;;17.50;80.50;19.20;101863.00;;;;5472527;26;20360;-77
2024/04/11 10:06:01;;;;;;;0.20;0.20;;;17.50;80.40;19.30;101860.00;;;;5462454;26;20303;-78
2024/04/11 10:08:36;;;;;;;0.22;0.22;;;17.60;80.20;19.20;101870.00;;;;5468824;26;20354;-79
2024/04/11 10:11:10;;;;;;;0.30;0.30;;;17.60;80.20;19.30;101862.00;;;;5465350;26;20295;-78
2024/04/11 10:13:41;;;;;;;0.30;0.30;;;17.60;80.20;19.30;101865.00;;;;5466849;26;20282;-78
2024/04/11 10:16:21;;;;;;;0.22;0.22;;;17.70;80.40;19.30;101859.00;;;;5462871;26;20336;-75
2024/04/11 10:19:04;;;;;;;0.30;0.30;;;17.70;80.50;19.40;101863.00;;;;5467238;26;20282;-80
2024/04/11 10:21:32;;;;;;;0.30;0.30;;;17.80;81.30;19.50;101863.00;;;;5466988;26;20338;-76
2024/04/11 10:24:03;;;;;;;0.30;0.30;;;17.80;81.10;19.60;101871.00;;;;5465261;26;20336;-75
2024/04/11 10:26:32;;;;;;;0.30;0.30;;;17.90;81.40;19.60;101865.00;;;;5476252;26;20311;-76
2024/04/11 10:29:15;;;;;;;0.30;0.30;;;17.90;81.80;19.80;101851.00;;;;5469368;26;20254;-77
2024/04/11 10:31:44;;;;;;;0.30;0.30;;;18.00;81.70;19.90;101869.00;;;;5481125;26;20232;-75
2024/04/11 10:34:19;;;;;;;0.30;0.30;;;18.10;81.60;19.90;101883.00;;;;5468207;26;20265;-80
2024/04/11 10:36:54;;;;;;;0.30;0.30;;;18.20;81.50;20.00;101874.00;;;;5469739;26;20297;-75
2024/04/11 10:39:24;;;;;;;0.30;0.30;;;18.30;81.30;20.10;101885.00;;;;5461670;26;22511;-75
2024/04/11 10:41:56;;;;;;;0.30;0.30;;;18.30;81.20;20.10;101884.00;;;;5470507;26;20235;-78
2024/04/11 10:44:26;;;;;;;0.30;0.30;;;18.40;81.90;20.20;101881.00;;;;5459664;26;20328;-79
2024/04/11 10:46:52;;;;;;;0.25;0.25;;;18.50;81.70;20.30;101887.00;;;;5472959;26;20251;-78
2024/04/11 10:49:28;;;;;;;0.30;0.30;;;18.50;81.60;20.30;101888.00;;;;5475161;26;20266;-77
2024/04/11 10:51:58;;;;;;;0.30;0.30;;;18.60;81.60;20.40;101896.00;;;;5472105;26;20271;-78
2024/04/11 10:54:30;;;;;;;0.30;0.30;;;18.60;81.30;20.40;101893.00;;;;5461525;26;20235;-76
2024/04/11 10:57:00;;;;;;;0.30;0.30;;;18.70;81.40;20.40;101880.00;;;;5471929;26;20365;-76